Time;durP1;ratioP1;P1;durP2;ratioP2;P2;SDS_P1;SDS_P2;PMS_P1;PMS_P2;Temp;Humidity;BMP_temperature;BMP_pressure;BME280_temperature;BME280_humidity;BME280_pressure;Samples;Min_cycle;Max_cycle;Signal;HPM_P1;HPM_P2
2022/12/07 00:01:45;;;;;;;18.30;14.30;;;;;;;1.52;90.89;98307.44;86017;1287;26605;-71
2022/12/07 00:03:48;;;;;;;26.00;14.90;;;;;;;1.53;90.73;98309.84;86047;1288;22596;-71
2022/12/07 00:05:49;;;;;;;20.50;14.60;;;;;;;1.54;90.76;98310.34;85878;1285;99827;-72
2022/12/07 00:07:50;;;;;;;24.90;14.70;;;;;;;1.53;90.77;98312.59;85961;1285;24422;-70
2022/12/07 00:09:51;;;;;;;19.80;14.50;;;;;;;1.53;91.04;98313.64;86068;1285;22595;-71
2022/12/07 00:11:52;;;;;;;20.80;15.00;;;;;;;1.53;90.95;98314.67;85919;1286;99419;-71
2022/12/07 00:13:56;;;;;;;17.70;12.70;;;;;;;1.54;91.05;98314.15;86031;1287;22488;-72
2022/12/07 00:16:03;;;;;;;19.70;12.80;;;;;;;1.54;90.74;98307.92;86200;1286;22558;-73
2022/12/07 00:18:04;;;;;;;20.40;12.70;;;;;;;1.55;90.72;98304.79;86094;1290;99676;-71
2022/12/07 00:20:05;;;;;;;16.70;12.00;;;;;;;1.55;90.75;98306.34;86005;1282;24716;-71
2022/12/07 00:22:06;;;;;;;17.20;11.70;;;;;;;1.55;90.85;98305.30;86022;1279;99512;-71
2022/12/07 00:24:09;;;;;;;18.90;11.40;;;;;;;1.55;90.75;98304.42;86045;1282;23263;-71
2022/12/07 00:26:16;;;;;;;16.80;11.50;;;;;;;1.55;90.72;98307.37;86192;1279;22503;-72
2022/12/07 00:28:17;;;;;;;16.60;11.50;;;;;;;1.56;90.89;98307.02;86056;1286;99316;-71
2022/12/07 00:30:18;;;;;;;14.60;10.90;;;;;;;1.55;91.23;98305.30;86284;1287;24052;-73
2022/12/07 00:32:19;;;;;;;13.60;11.00;;;;;;;1.52;90.79;98298.95;86050;1286;22524;-71
2022/12/07 00:34:21;;;;;;;15.60;11.30;;;;;;;1.57;91.14;98308.56;86046;1279;98637;-71
2022/12/07 00:36:23;;;;;;;16.60;10.10;;;;;;;1.56;90.92;98307.36;86208;1287;25371;-71
2022/12/07 00:38:28;;;;;;;13.00;9.80;;;;;;;1.56;90.92;98305.63;86109;1285;22494;-71
2022/12/07 00:40:29;;;;;;;14.30;11.00;;;;;;;1.56;91.06;98303.55;86020;1285;99285;-72
2022/12/07 00:42:29;;;;;;;11.40;9.70;;;;;;;1.56;90.73;98301.64;86301;1287;22465;-72
2022/12/07 00:44:30;;;;;;;12.30;10.60;;;;;;;1.56;90.88;98301.66;86153;1286;25699;-71
2022/12/07 00:46:32;;;;;;;11.00;9.90;;;;;;;1.58;90.95;98300.56;86139;1287;100493;-71
2022/12/07 00:48:33;;;;;;;12.00;9.90;;;;;;;1.57;91.00;98298.51;86191;1280;22486;-72
2022/12/07 00:50:34;;;;;;;14.70;10.20;;;;;;;1.57;90.65;98297.63;86040;1289;22565;-71
2022/12/07 00:52:35;;;;;;;14.30;10.00;;;;;;;1.57;90.97;98296.59;86074;1279;99325;-71
2022/12/07 00:54:36;;;;;;;12.90;9.20;;;;;;;1.57;90.73;98296.09;86142;1287;22487;-71
2022/12/07 00:56:38;;;;;;;16.90;10.70;;;;;;;1.56;90.71;98292.98;86136;1280;25430;-70
2022/12/07 00:58:38;;;;;;;;;;;;;;;1.56;91.01;98290.89;86143;1287;100288;-71
2022/12/07 01:00:41;;;;;;;14.70;9.40;;;;;;;1.56;91.07;98287.64;86301;1287;22638;-70
2022/12/07 01:02:42;;;;;;;13.20;10.50;;;;;;;1.55;90.99;98289.89;86143;1288;22567;-71
2022/12/07 01:04:44;;;;;;;14.10;10.80;;;;;;;1.54;90.97;98286.27;86095;1295;99418;-72
2022/12/07 01:06:44;;;;;;;11.60;10.00;;;;;;;1.53;91.15;98287.67;86239;1287;22608;-72
2022/12/07 01:08:45;;;;;;;12.30;9.50;;;;;;;1.53;90.93;98289.74;86262;1282;22536;-72
2022/12/07 01:10:47;;;;;;;14.00;11.10;;;;;;;1.53;90.67;98291.30;86236;1282;99745;-71
2022/12/07 01:12:48;;;;;;;12.20;10.30;;;;;;;1.54;90.67;98291.13;86284;1286;22537;-70
2022/12/07 01:14:49;;;;;;;13.20;10.70;;;;;;;1.53;90.88;98287.14;86204;1289;25375;-72
2022/12/07 01:16:50;;;;;;;12.20;10.30;;;;;;;1.53;90.64;98284.73;86127;1286;99530;-71
2022/12/07 01:18:53;;;;;;;11.80;10.40;;;;;;;1.53;90.69;98282.48;86188;1290;23990;-70
2022/12/07 01:20:58;;;;;;;16.10;11.30;;;;;;;1.53;91.19;98281.28;86368;1287;22473;-71
2022/12/07 01:23:00;;;;;;;12.30;9.90;;;;;;;1.53;90.94;98278.33;86177;1311;99543;-72
2022/12/07 01:25:01;;;;;;;12.70;10.70;;;;;;;1.53;90.71;98276.95;86027;1295;23956;-71
2022/12/07 01:27:02;;;;;;;;;;;;;;;1.53;90.83;98278.85;86402;1280;22543;-71
2022/12/07 01:29:03;;;;;;;13.40;10.90;;;;;;;1.52;90.67;98277.32;86246;1287;85641;-71
2022/12/07 01:31:06;;;;;;;;;;;;;;;1.51;90.68;98275.60;86372;1295;22478;-70
2022/12/07 01:33:08;;;;;;;10.90;9.80;;;;;;;1.51;91.01;98270.42;86412;1286;22516;-71
2022/12/07 01:35:09;;;;;;;11.90;10.70;;;;;;;1.51;90.86;98271.45;86176;1290;98118;-71
2022/12/07 01:37:10;;;;;;;14.60;11.30;;;;;;;1.52;91.04;98272.13;86510;1296;24474;-71
2022/12/07 01:39:11;;;;;;;12.00;10.30;;;;;;;1.52;90.79;98269.34;87572;1310;22765;-73
2022/12/07 01:41:13;;;;;;;13.50;11.10;;;;;;;1.52;90.92;98271.61;88019;1311;98604;-71
2022/12/07 01:43:19;;;;;;;14.60;11.00;;;;;;;1.51;90.60;98270.41;88259;1305;22124;-72
2022/12/07 01:45:41;;;;;;;12.00;10.50;;;;;;;1.50;90.50;98267.49;87971;1288;22518;-72
2022/12/07 01:47:46;;;;;;;13.60;10.60;;;;;;;1.49;90.88;98270.80;87580;1311;98283;-72
2022/12/07 01:49:49;;;;;;;11.30;10.10;;;;;;;1.48;90.80;98268.93;87340;1296;23816;-72
2022/12/07 01:51:59;;;;;;;11.20;10.10;;;;;;;1.48;90.88;98269.45;87378;1284;24207;-72
2022/12/07 01:54:01;;;;;;;15.60;10.20;;;;;;;1.46;90.87;98268.98;86094;1289;98989;-72
2022/12/07 01:56:02;;;;;;;19.70;10.00;;;;;;;1.45;90.90;98270.89;85995;1285;24258;-72
2022/12/07 01:58:04;;;;;;;12.90;9.60;;;;;;;1.44;90.78;98265.55;86007;1282;22482;-71
2022/12/07 02:00:07;;;;;;;13.00;10.70;;;;;;;1.30;90.79;98245.27;86123;1279;99811;-70
2022/12/07 02:02:17;;;;;;;13.30;9.50;;;;;;;1.43;91.00;98266.80;85967;1282;22477;-72
2022/12/07 02:04:19;;;;;;;13.40;10.50;;;;;;;1.42;90.64;98268.20;86100;1287;99205;-72
2022/12/07 02:06:25;;;;;;;12.10;9.50;;;;;;;1.40;90.76;98269.11;86031;1287;26321;-72
2022/12/07 02:08:26;;;;;;;20.00;9.60;;;;;;;1.38;90.75;98269.67;86176;1286;23412;-71
2022/12/07 02:10:30;;;;;;;10.30;8.70;;;;;;;1.37;90.64;98270.57;85886;1286;171677;-71
2022/12/07 02:12:31;;;;;;;11.10;9.70;;;;;;;1.35;90.65;98269.38;86141;1287;22502;-71
2022/12/07 02:14:32;;;;;;;12.20;10.70;;;;;;;1.34;90.66;98267.16;86130;1287;22482;-71
2022/12/07 02:17:06;;;;;;;11.80;9.90;;;;;;;1.32;90.58;98264.09;86069;1283;99483;-71
2022/12/07 02:19:45;;;;;;;12.80;10.10;;;;;;;1.30;90.87;98262.23;85385;1295;25312;-72
2022/12/07 02:21:53;;;;;;;16.50;10.00;;;;;;;1.27;90.90;98257.80;85403;1288;22507;-72
2022/12/07 02:24:19;;;;;;;13.30;9.70;;;;;;;1.27;90.84;98262.64;85438;1295;99386;-71
2022/12/07 02:26:52;;;;;;;12.50;10.40;;;;;;;1.26;90.77;98266.13;85659;1290;22596;-71
2022/12/07 02:29:30;;;;;;;11.90;9.90;;;;;;;1.25;90.88;98268.05;85419;1291;99396;-71
2022/12/07 02:31:32;;;;;;;12.80;10.00;;;;;;;1.24;91.02;98271.20;85879;1298;25385;-71
2022/12/07 02:33:36;;;;;;;;;;;;;;;1.23;90.99;98267.40;86579;1298;24485;-71
2022/12/07 02:35:46;;;;;;;16.00;10.30;;;;;;;1.21;90.63;98270.05;86566;1309;84346;-72
2022/12/07 02:37:58;;;;;;;11.60;10.30;;;;;;;1.20;91.01;98267.30;86531;1299;22521;-72
2022/12/07 02:40:07;;;;;;;14.10;10.10;;;;;;;1.18;90.78;98266.30;85698;1299;24708;-70
2022/12/07 02:42:18;;;;;;;12.10;10.30;;;;;;;1.18;90.94;98266.80;85901;1292;22645;-71
2022/12/07 02:44:24;;;;;;;11.20;9.40;;;;;;;1.18;90.85;98268.36;85774;1298;23990;-70
2022/12/07 02:46:42;;;;;;;13.20;10.20;;;;;;;1.17;90.65;98268.73;85607;1292;99828;-71
2022/12/07 02:48:45;;;;;;;11.10;10.10;;;;;;;1.17;91.03;98265.80;85647;1299;23441;-72
2022/12/07 02:50:50;;;;;;;11.30;9.30;;;;;;;1.16;90.96;98266.69;85266;1299;24321;-71
2022/12/07 02:52:51;;;;;;;11.00;9.90;;;;;;;1.16;90.89;98264.44;85248;1296;99396;-72
2022/12/07 02:54:52;;;;;;;13.30;10.00;;;;;;;1.16;91.14;98261.67;85505;1298;22644;-71
2022/12/07 02:57:13;;;;;;;11.10;10.00;;;;;;;1.15;91.02;98261.17;85302;1294;24453;-70
2022/12/07 02:59:32;;;;;;;19.70;9.40;;;;;;;1.13;90.84;98255.33;85571;1292;98508;-70
2022/12/07 03:01:41;;;;;;;11.10;9.50;;;;;;;1.09;90.87;98257.16;85568;1292;23428;-71
2022/12/07 03:03:50;;;;;;;10.70;9.60;;;;;;;1.06;90.89;98254.11;85644;1291;22532;-70
2022/12/07 03:06:03;;;;;;;15.00;9.50;;;;;;;1.04;90.66;98251.56;85373;1288;99319;-71
2022/12/07 03:08:10;;;;;;;11.50;9.70;;;;;;;0.97;90.80;98244.27;86051;1286;24526;-70
2022/12/07 03:10:30;;;;;;;15.90;10.50;;;;;;;0.96;90.95;98249.45;86005;1286;99364;-71
2022/12/07 03:12:53;;;;;;;15.00;9.60;;;;;;;0.95;90.65;98250.89;86100;1279;23777;-73
2022/12/07 03:15:14;;;;;;;11.70;10.30;;;;;;;0.91;90.94;98249.23;86035;1287;25288;-71
2022/12/07 03:17:26;;;;;;;12.50;9.70;;;;;;;0.91;91.07;98245.79;86004;1290;102342;-71
2022/12/07 03:19:27;;;;;;;11.40;9.70;;;;;;;0.89;90.79;98246.33;86111;1282;22886;-71
2022/12/07 03:21:37;;;;;;;12.90;10.90;;;;;;;0.88;90.95;98242.89;86177;1287;22469;-69
2022/12/07 03:23:41;;;;;;;12.40;10.10;;;;;;;0.85;90.78;98242.09;85971;1279;99608;-70
2022/12/07 03:25:49;;;;;;;13.90;10.40;;;;;;;0.84;90.83;98241.60;86100;1282;22545;-71
2022/12/07 03:27:57;;;;;;;12.20;10.90;;;;;;;0.82;91.01;98239.73;85885;1286;24332;-71
2022/12/07 03:30:06;;;;;;;14.90;11.00;;;;;;;0.81;91.02;98238.52;85865;1282;99412;-71
2022/12/07 03:32:14;;;;;;;15.40;11.60;;;;;;;0.80;91.01;98238.04;85914;1288;22495;-71
2022/12/07 03:34:34;;;;;;;14.40;11.40;;;;;;;0.81;90.99;98236.30;85766;1286;99617;-71
2022/12/07 03:36:46;;;;;;;16.20;11.70;;;;;;;0.79;91.02;98234.77;86130;1279;25269;-74
2022/12/07 03:39:00;;;;;;;16.80;12.30;;;;;;;0.80;90.99;98232.16;86255;1279;22539;-72
2022/12/07 03:41:11;;;;;;;16.70;12.30;;;;;;;0.81;90.80;98229.02;85881;1288;99384;-72
2022/12/07 03:43:12;;;;;;;17.20;13.10;;;;;;;0.80;90.95;98228.88;86062;1287;24278;-71
2022/12/07 03:45:14;;;;;;;17.90;12.80;;;;;;;0.80;91.29;98226.80;86144;1285;24243;-71
2022/12/07 03:47:21;;;;;;;17.00;13.10;;;;;;;0.81;90.88;98228.15;86054;1279;98095;-72
2022/12/07 03:49:40;;;;;;;19.60;13.60;;;;;;;0.82;91.29;98222.45;86145;1279;24369;-71
2022/12/07 03:51:56;;;;;;;21.20;14.10;;;;;;;0.81;91.10;98220.88;86068;1282;22471;-71
2022/12/07 03:54:05;;;;;;;15.40;13.00;;;;;;;0.82;91.05;98220.00;85967;1287;99551;-71
2022/12/07 03:56:09;;;;;;;16.40;13.10;;;;;;;0.82;90.76;98220.02;86098;1287;24301;-71
2022/12/07 03:58:15;;;;;;;21.30;14.30;;;;;;;0.82;91.04;98213.96;85901;1281;99521;-73
2022/12/07 04:00:18;;;;;;;18.00;12.90;;;;;;;0.83;91.09;98214.11;85983;1283;22536;-72
2022/12/07 04:02:19;;;;;;;21.80;14.80;;;;;;;0.83;91.34;98214.63;86051;1302;23754;-71
2022/12/07 04:04:23;;;;;;;20.10;14.50;;;;;;;0.84;91.29;98216.70;85801;1288;99761;-72
2022/12/07 04:06:24;;;;;;;22.30;14.60;;;;;;;0.86;90.88;98214.23;86046;1286;25962;-71
2022/12/07 04:08:25;;;;;;;22.90;14.90;;;;;;;0.87;91.19;98215.77;85971;1289;23243;-71
2022/12/07 04:10:26;;;;;;;22.70;15.40;;;;;;;0.88;91.17;98215.57;85895;1292;99657;-71
2022/12/07 04:12:27;;;;;;;21.30;15.40;;;;;;;0.89;91.18;98217.10;85902;1285;22581;-72
2022/12/07 04:14:28;;;;;;;24.10;15.10;;;;;;;0.90;91.28;98216.91;85963;1286;22443;-71
2022/12/07 04:16:29;;;;;;;22.50;15.60;;;;;;;0.91;91.13;98217.06;85891;1288;99358;-71
2022/12/07 04:18:30;;;;;;;21.20;15.80;;;;;;;0.92;91.19;98214.45;86009;1286;22647;-71
2022/12/07 04:20:31;;;;;;;21.40;15.40;;;;;;;0.93;91.23;98216.66;85968;1282;25338;-71
2022/12/07 04:22:33;;;;;;;20.50;14.90;;;;;;;0.94;91.00;98217.86;85903;1284;99334;-71
2022/12/07 04:24:34;;;;;;;;;;;;;;;0.94;91.04;98214.05;85925;1286;25367;-72
2022/12/07 04:26:35;;;;;;;;;;;;;;;0.92;91.21;98206.83;86000;1279;22510;-72
2022/12/07 04:28:36;;;;;;;20.20;13.30;;;;;;;0.90;91.25;98212.23;85953;1279;86077;-70
2022/12/07 04:30:37;;;;;;;21.90;14.60;;;;;;;0.90;90.98;98211.04;85901;1282;25491;-71
2022/12/07 04:32:38;;;;;;;25.30;16.70;;;;;;;0.89;91.01;98211.40;86028;1279;26387;-70
2022/12/07 04:34:39;;;;;;;24.10;16.20;;;;;;;0.83;91.38;98203.56;85743;1288;99525;-70
2022/12/07 04:36:41;;;;;;;22.20;16.10;;;;;;;0.87;91.17;98209.71;86043;1286;22510;-72
2022/12/07 04:38:42;;;;;;;22.40;16.90;;;;;;;0.88;91.04;98211.09;85969;1289;22968;-71
2022/12/07 04:40:43;;;;;;;25.10;18.20;;;;;;;0.87;90.90;98212.13;85962;1285;99293;-71
2022/12/07 04:42:44;;;;;;;22.90;16.50;;;;;;;0.86;91.12;98210.94;85946;1279;25353;-71
2022/12/07 04:44:45;;;;;;;28.70;16.90;;;;;;;0.86;91.24;98211.27;85950;1286;22534;-71
2022/12/07 04:46:46;;;;;;;26.20;17.80;;;;;;;0.85;91.10;98214.05;85891;1286;100335;-71
2022/12/07 04:48:47;;;;;;;26.80;18.00;;;;;;;0.85;91.14;98214.57;85914;1283;22513;-71
2022/12/07 04:50:51;;;;;;;20.10;15.70;;;;;;;0.85;91.11;98214.58;86043;1282;23876;-70
2022/12/07 04:52:52;;;;;;;21.50;15.50;;;;;;;0.77;91.15;98199.02;85911;1296;99415;-70
2022/12/07 04:54:53;;;;;;;28.10;15.30;;;;;;;0.82;91.17;98213.62;85893;1282;25524;-71
2022/12/07 04:56:54;;;;;;;19.00;14.70;;;;;;;0.80;91.13;98213.49;85855;1283;22470;-71
2022/12/07 04:58:55;;;;;;;19.00;15.60;;;;;;;0.77;91.16;98208.02;85953;1278;101630;-70
2022/12/07 05:00:56;;;;;;;21.90;15.40;;;;;;;0.74;91.31;98208.60;86077;1280;22520;-71
2022/12/07 05:02:57;;;;;;;19.70;15.60;;;;;;;0.71;90.90;98213.86;86159;1279;25761;-70
2022/12/07 05:04:58;;;;;;;23.40;14.90;;;;;;;0.66;90.93;98209.30;85951;1279;98909;-71
2022/12/07 05:06:59;;;;;;;21.60;15.70;;;;;;;0.61;91.01;98210.77;85928;1286;22525;-71
2022/12/07 05:09:00;;;;;;;23.10;16.00;;;;;;;0.56;90.88;98208.27;85916;1289;24212;-71
2022/12/07 05:11:03;;;;;;;22.80;16.00;;;;;;;0.52;90.89;98209.56;85999;1284;99495;-72
2022/12/07 05:13:04;;;;;;;28.50;18.00;;;;;;;0.48;90.97;98206.87;86004;1297;26646;-73
2022/12/07 05:15:05;;;;;;;26.80;17.80;;;;;;;0.45;90.74;98206.94;86055;1279;25305;-72
2022/12/07 05:17:06;;;;;;;31.20;18.20;;;;;;;0.42;90.95;98208.73;85887;1289;99908;-74
2022/12/07 05:19:08;;;;;;;26.90;19.70;;;;;;;0.40;90.93;98209.82;86148;1279;23409;-72
2022/12/07 05:21:09;;;;;;;30.90;18.90;;;;;;;0.38;90.90;98209.16;86455;1287;26606;-72
2022/12/07 05:23:11;;;;;;;30.40;18.50;;;;;;;0.37;91.10;98208.66;85965;1282;98841;-72
2022/12/07 05:25:14;;;;;;;28.00;18.90;;;;;;;0.36;90.88;98211.11;85975;1287;25554;-71
2022/12/07 05:27:15;;;;;;;29.00;19.80;;;;;;;0.34;91.19;98214.23;86183;1287;22461;-71
2022/12/07 05:29:17;;;;;;;27.60;19.10;;;;;;;0.34;91.11;98213.55;86218;1289;101558;-73
2022/12/07 05:31:18;;;;;;;25.80;17.10;;;;;;;0.33;91.12;98212.17;86009;1282;22486;-72
2022/12/07 05:33:19;;;;;;;24.50;18.30;;;;;;;0.33;91.15;98211.67;85942;1279;22509;-71
2022/12/07 05:35:20;;;;;;;29.50;18.10;;;;;;;0.33;90.88;98208.73;85876;1279;99737;-71
2022/12/07 05:37:21;;;;;;;24.80;18.30;;;;;;;0.32;91.26;98208.40;85912;1279;22524;-71
2022/12/07 05:39:22;;;;;;;24.20;17.70;;;;;;;0.32;91.18;98212.36;85909;1279;25337;-71
2022/12/07 05:43:42;;;;;;;27.40;18.00;;;;;;;0.34;91.22;98212.51;86023;1279;22491;-72
2022/12/07 05:45:43;;;;;;;24.40;16.90;;;;;;;0.34;91.13;98212.86;86002;1280;22823;-72
2022/12/07 05:47:45;;;;;;;29.50;16.20;;;;;;;0.35;91.19;98209.55;85910;1286;98543;-71
2022/12/07 05:49:46;;;;;;;22.60;17.00;;;;;;;0.36;91.24;98211.77;85966;1282;22969;-71
2022/12/07 05:51:47;;;;;;;24.90;17.60;;;;;;;0.39;91.10;98211.56;85833;1290;26535;-71
2022/12/07 05:53:48;;;;;;;23.70;17.10;;;;;;;0.40;91.23;98210.85;85948;1287;98864;-71
2022/12/07 05:55:49;;;;;;;;;;;;;;;0.41;91.24;98210.81;85968;1282;22477;-72
2022/12/07 06:00:18;;;;;;;23.50;15.60;;;;;;;0.44;91.32;98214.73;85912;1286;22581;-71
2022/12/07 06:02:19;;;;;;;;;;;;;;;0.45;91.60;98212.81;86076;1279;26549;-71
2022/12/07 06:04:20;;;;;;;21.90;15.80;;;;;;;0.47;91.52;98216.56;85866;1279;84516;-70
2022/12/07 06:06:21;;;;;;;27.00;15.80;;;;;;;0.49;91.44;98214.45;86006;1282;22447;-72
2022/12/07 06:08:23;;;;;;;21.90;17.00;;;;;;;0.53;91.62;98215.61;86011;1279;23878;-72
2022/12/07 06:10:23;;;;;;;19.40;15.40;;;;;;;0.54;91.57;98215.07;85802;1280;99633;-72
2022/12/07 06:12:33;;;;;;;22.30;16.90;;;;;;;0.56;91.32;98212.96;85900;1286;24076;-76
2022/12/07 06:14:35;;;;;;;28.30;18.20;;;;;;;0.57;91.52;98215.85;85846;1282;22505;-71
2022/12/07 06:16:36;;;;;;;24.70;17.70;;;;;;;0.59;91.38;98216.35;85829;1279;99575;-71
2022/12/07 06:18:37;;;;;;;24.70;15.60;;;;;;;0.60;91.55;98215.10;85904;1279;25613;-71
2022/12/07 06:20:38;;;;;;;21.50;16.70;;;;;;;0.62;91.54;98218.34;85711;1282;22500;-72
2022/12/07 06:22:38;;;;;;;19.40;15.10;;;;;;;0.64;91.43;98220.40;85636;1282;99825;-72
2022/12/07 06:24:40;;;;;;;22.70;15.00;;;;;;;0.65;91.45;98219.16;85815;1295;23928;-71
2022/12/07 06:26:41;;;;;;;18.90;14.00;;;;;;;0.66;91.53;98218.08;85859;1279;22487;-70
2022/12/07 06:28:42;;;;;;;18.10;13.90;;;;;;;0.67;91.55;98218.08;85705;1282;99456;-71
2022/12/07 06:30:43;;;;;;;17.40;12.40;;;;;;;0.70;91.57;98218.02;85903;1286;22480;-71
2022/12/07 06:32:44;;;;;;;18.40;13.40;;;;;;;0.70;91.56;98219.56;85867;1279;22973;-71
2022/12/07 06:34:46;;;;;;;20.50;14.10;;;;;;;0.72;91.28;98221.45;85742;1279;99527;-71
2022/12/07 06:36:51;;;;;;;18.60;13.80;;;;;;;0.73;91.63;98220.90;85755;1289;24252;-72
2022/12/07 06:38:52;;;;;;;18.00;15.20;;;;;;;0.74;91.52;98222.25;85826;1282;22586;-71
2022/12/07 06:40:53;;;;;;;17.20;14.60;;;;;;;0.76;91.56;98222.91;85801;1280;99792;-71
2022/12/07 06:42:54;;;;;;;20.20;15.60;;;;;;;0.77;91.21;98223.74;85971;1282;22474;-71
2022/12/07 06:44:55;;;;;;;22.30;15.90;;;;;;;0.78;91.57;98225.98;85894;1282;22504;-71
2022/12/07 06:46:56;;;;;;;24.30;17.00;;;;;;;0.79;91.40;98232.52;85768;1286;99999;-71
2022/12/07 06:48:57;;;;;;;18.70;15.80;;;;;;;0.80;91.35;98232.33;85773;1290;23340;-70
2022/12/07 06:50:58;;;;;;;22.10;15.70;;;;;;;0.81;91.49;98230.23;85840;1286;22929;-70
2022/12/07 06:52:59;;;;;;;25.20;15.40;;;;;;;0.81;91.42;98236.11;85705;1280;99354;-69
2022/12/07 06:55:00;;;;;;;17.20;14.40;;;;;;;0.81;91.48;98236.11;85891;1286;25414;-70
2022/12/07 06:57:01;;;;;;;21.20;15.40;;;;;;;0.80;91.55;98238.04;85847;1279;22468;-71
2022/12/07 06:59:03;;;;;;;23.10;15.00;;;;;;;0.80;91.39;98235.44;85764;1285;99369;-70
2022/12/07 07:01:12;;;;;;;18.90;14.70;;;;;;;0.79;91.32;98234.60;85791;1280;24382;-72
2022/12/07 07:03:13;;;;;;;21.90;15.60;;;;;;;0.79;91.39;98238.23;85794;1282;22539;-70
2022/12/07 07:05:16;;;;;;;20.80;15.20;;;;;;;0.80;91.58;98236.50;85815;1286;99398;-70
2022/12/07 07:07:17;;;;;;;22.10;16.10;;;;;;;0.80;91.63;98237.36;85842;1279;24372;-70
2022/12/07 07:09:18;;;;;;;22.30;15.40;;;;;;;0.80;91.39;98237.88;85861;1282;22560;-70
2022/12/07 07:11:19;;;;;;;23.10;15.20;;;;;;;0.79;91.25;98235.65;85905;1282;99575;-71
2022/12/07 07:13:20;;;;;;;;;;;;;;;0.77;91.74;98235.52;85897;1279;22601;-72
2022/12/07 07:15:21;;;;;;;21.00;15.00;;;;;;;0.76;91.23;98241.94;86053;1282;22778;-73
2022/12/07 07:17:22;;;;;;;20.80;15.30;;;;;;;0.74;91.63;98245.43;85857;1286;99560;-71
2022/12/07 07:19:23;;;;;;;20.60;14.30;;;;;;;0.73;91.39;98248.73;85684;1288;22564;-71
2022/12/07 07:21:24;;;;;;;21.80;14.40;;;;;;;0.72;91.41;98247.02;85960;1286;22486;-70
2022/12/07 07:23:25;;;;;;;19.90;15.00;;;;;;;0.70;91.46;98246.89;85736;1279;99415;-71
2022/12/07 07:25:26;;;;;;;21.00;14.50;;;;;;;0.69;91.30;98243.81;85858;1285;22624;-70
2022/12/07 07:27:27;;;;;;;20.40;14.10;;;;;;;0.69;91.39;98243.45;85864;1283;24254;-71
2022/12/07 07:29:27;;;;;;;21.60;12.90;;;;;;;0.70;91.32;98241.88;85699;1279;99338;-71
2022/12/07 07:31:28;;;;;;;18.60;13.00;;;;;;;0.70;91.44;98242.90;85816;1282;22527;-69
2022/12/07 07:33:29;;;;;;;21.20;13.50;;;;;;;0.70;91.24;98242.73;86166;1279;22740;-70
2022/12/07 07:35:32;;;;;;;18.50;13.00;;;;;;;0.71;91.18;98246.35;86154;1282;100461;-70
2022/12/07 07:37:33;;;;;;;24.00;14.30;;;;;;;0.73;91.26;98243.39;86161;1279;23456;-71
2022/12/07 07:39:34;;;;;;;21.60;15.80;;;;;;;0.73;91.29;98241.98;86220;1284;22477;-70
2022/12/07 07:41:35;;;;;;;22.60;16.50;;;;;;;0.75;91.29;98244.70;86106;1280;100355;-72
2022/12/07 07:43:36;;;;;;;28.10;16.20;;;;;;;0.76;91.38;98247.28;86033;1282;22587;-71
2022/12/07 07:45:37;;;;;;;29.00;17.50;;;;;;;0.78;91.61;98242.05;86126;1279;23801;-70
2022/12/07 07:47:38;;;;;;;22.80;16.20;;;;;;;0.80;91.54;98244.79;86090;1279;100453;-70
2022/12/07 07:49:39;;;;;;;25.10;16.20;;;;;;;0.81;91.50;98250.46;86045;1282;22530;-71
2022/12/07 07:51:40;;;;;;;19.40;15.30;;;;;;;0.83;91.35;98253.55;86411;1280;22603;-70
2022/12/07 07:53:41;;;;;;;27.20;17.20;;;;;;;0.84;91.29;98255.79;86242;1279;101439;-71
2022/12/07 07:55:50;;;;;;;29.20;18.80;;;;;;;0.85;91.47;98254.36;86376;1284;22511;-71
2022/12/07 07:57:51;;;;;;;26.10;14.40;;;;;;;0.88;91.38;98255.34;86181;1280;23394;-70
2022/12/07 07:59:52;;;;;;;21.00;16.50;;;;;;;0.89;91.44;98253.93;85829;1285;99366;-70
2022/12/07 08:01:53;;;;;;;15.10;12.50;;;;;;;0.90;91.30;98253.40;85903;1279;24244;-71
2022/12/07 08:03:54;;;;;;;19.70;15.20;;;;;;;0.92;91.15;98254.91;86017;1279;22500;-70
2022/12/07 08:05:55;;;;;;;20.10;14.50;;;;;;;0.93;91.34;98249.86;85811;1286;99398;-70
2022/12/07 08:07:57;;;;;;;18.50;12.90;;;;;;;0.95;91.42;98248.81;85930;1279;22604;-70
2022/12/07 08:09:58;;;;;;;19.00;14.10;;;;;;;0.97;91.46;98254.30;85843;1279;25331;-70
2022/12/07 08:11:59;;;;;;;19.30;14.50;;;;;;;0.99;91.62;98259.62;85855;1279;99829;-70
2022/12/07 08:14:00;;;;;;;24.40;14.80;;;;;;;1.01;91.52;98263.55;85858;1283;25544;-71
2022/12/07 08:16:07;;;;;;;18.90;14.20;;;;;;;1.03;91.73;98263.17;85853;1282;22522;-72
2022/12/07 08:18:08;;;;;;;17.70;13.10;;;;;;;1.05;91.23;98264.84;86053;1279;99283;-71
2022/12/07 08:20:09;;;;;;;22.90;13.90;;;;;;;1.06;91.40;98260.85;86138;1280;22619;-71
2022/12/07 08:22:10;;;;;;;31.60;16.10;;;;;;;1.09;91.48;98266.14;86778;1286;24175;-71
2022/12/07 08:24:11;;;;;;;15.80;13.30;;;;;;;1.10;91.51;98265.09;86904;1282;99455;-71
2022/12/07 08:26:16;;;;;;;19.80;14.50;;;;;;;1.12;91.28;98266.61;87439;1289;22517;-71
2022/12/07 08:28:17;;;;;;;17.40;13.80;;;;;;;1.14;91.79;98273.30;87324;1289;98367;-71
2022/12/07 08:30:19;;;;;;;14.30;12.40;;;;;;;1.15;91.36;98270.85;86334;1279;22481;-71
2022/12/07 08:32:20;;;;;;;25.30;13.00;;;;;;;1.17;91.40;98272.71;86389;1281;22510;-71
2022/12/07 08:34:21;;;;;;;15.00;12.00;;;;;;;1.19;91.45;98273.02;86325;1293;99616;-71
2022/12/07 08:36:22;;;;;;;18.90;12.20;;;;;;;1.21;91.44;98275.59;86081;1288;22579;-71
2022/12/07 08:38:23;;;;;;;21.60;13.10;;;;;;;1.23;91.25;98274.33;86281;1287;23579;-71
2022/12/07 08:40:25;;;;;;;23.80;15.40;;;;;;;1.25;91.41;98274.98;85875;1289;100008;-71
2022/12/07 08:42:29;;;;;;;22.70;14.50;;;;;;;1.27;91.47;98276.50;86055;1279;22537;-72
2022/12/07 08:44:30;;;;;;;19.40;13.60;;;;;;;1.28;91.36;98275.77;86351;1286;22507;-71
2022/12/07 08:46:46;;;;;;;15.20;13.20;;;;;;;1.29;91.43;98273.68;85986;1279;99503;-72
2022/12/07 08:48:52;;;;;;;20.50;12.80;;;;;;;1.30;91.37;98278.67;86263;1279;24007;-71
2022/12/07 08:50:54;;;;;;;17.40;13.80;;;;;;;1.32;91.51;98278.64;86468;1288;22602;-72
2022/12/07 08:52:58;;;;;;;17.30;13.00;;;;;;;1.32;91.42;98275.67;85847;1279;100049;-72
2022/12/07 08:55:00;;;;;;;16.10;12.10;;;;;;;1.33;91.44;98278.94;85976;1285;22479;-70
2022/12/07 08:57:01;;;;;;;17.70;13.50;;;;;;;1.35;91.23;98284.27;85894;1286;24278;-71
2022/12/07 08:59:04;;;;;;;21.20;13.00;;;;;;;1.37;91.41;98284.59;85853;1287;99953;-71
2022/12/07 09:01:05;;;;;;;15.60;12.70;;;;;;;1.38;91.39;98287.32;85971;1287;24336;-71
2022/12/07 09:03:06;;;;;;;15.30;12.10;;;;;;;1.38;91.36;98285.42;85753;1282;22596;-72
2022/12/07 09:05:07;;;;;;;15.00;12.30;;;;;;;1.39;91.52;98284.20;85709;1280;98261;-70
2022/12/07 09:07:08;;;;;;;;;;;;;;;1.40;91.44;98282.10;85715;1289;22682;-71
2022/12/07 09:09:11;;;;;;;16.40;13.50;;;;;;;1.40;91.36;98283.99;85776;1286;23293;-71
2022/12/07 09:11:12;;;;;;;16.50;13.00;;;;;;;1.42;91.67;98288.97;85688;1285;99372;-72
2022/12/07 09:13:13;;;;;;;20.40;13.20;;;;;;;1.42;91.43;98285.85;85750;1282;23222;-70
2022/12/07 09:15:14;;;;;;;16.80;11.40;;;;;;;1.43;91.34;98284.27;85793;1287;22477;-71
2022/12/07 09:17:15;;;;;;;13.30;11.90;;;;;;;1.43;91.49;98288.42;85787;1279;99575;-72
2022/12/07 09:19:16;;;;;;;15.20;11.60;;;;;;;1.43;91.32;98281.83;85717;1282;27175;-72
2022/12/07 09:21:17;;;;;;;;;;;;;;;1.44;91.32;98280.61;85755;1282;25363;-70
2022/12/07 09:23:18;;;;;;;23.50;13.00;;;;;;;1.44;91.70;98283.55;85721;1279;85976;-72
2022/12/07 09:25:19;;;;;;;19.00;13.30;;;;;;;1.45;91.63;98282.33;85646;1282;22515;-71
2022/12/07 09:27:20;;;;;;;21.90;12.20;;;;;;;1.45;91.69;98282.16;85849;1279;26559;-70
2022/12/07 09:29:21;;;;;;;35.80;11.50;;;;;;;1.45;91.40;98281.45;85745;1282;99974;-71
2022/12/07 09:31:22;;;;;;;19.70;12.40;;;;;;;1.45;91.41;98284.55;85890;1287;24362;-72
2022/12/07 09:33:23;;;;;;;18.00;12.30;;;;;;;1.46;91.66;98280.92;85829;1282;22473;-73
2022/12/07 09:35:25;;;;;;;18.80;12.10;;;;;;;1.47;91.57;98279.85;85691;1279;99788;-71
2022/12/07 09:37:26;;;;;;;15.40;11.40;;;;;;;1.47;91.44;98281.40;85861;1287;24454;-72
2022/12/07 09:39:27;;;;;;;14.40;11.20;;;;;;;1.48;91.49;98282.27;85835;1287;22512;-72
2022/12/07 09:41:31;;;;;;;17.80;11.50;;;;;;;1.48;91.45;98278.61;85651;1289;99591;-72
2022/12/07 09:43:34;;;;;;;14.40;11.60;;;;;;;1.49;91.42;98277.55;85972;1287;24320;-71